sensor_id;sensor_type;location;lat;lon;timestamp;pressure;altitude;pressure_sealevel;temperature;humidity
10869;BME280;62667;48.698;8.762;2024-03-23T00:53:13;95540.06;;;7.23;70.56
10869;BME280;62667;48.698;8.762;2024-03-23T00:55:41;95535.44;;;7.23;70.63
10869;BME280;62667;48.698;8.762;2024-03-23T00:58:06;95522.13;;;7.39;70.82
10869;BME280;62667;48.698;8.762;2024-03-23T01:00:33;95522.41;;;7.48;69.95
10869;BME280;62667;48.698;8.762;2024-03-23T01:02:59;95514.63;;;7.50;70.11
10869;BME280;62667;48.698;8.762;2024-03-23T01:05:25;95521.19;;;7.53;69.45
10869;BME280;62667;48.698;8.762;2024-03-23T01:07:51;95518.31;;;7.33;69.55
10869;BME280;62667;48.698;8.762;2024-03-23T01:10:19;95524.19;;;7.25;70.16
10869;BME280;62667;48.698;8.762;2024-03-23T01:12:45;95512.13;;;7.33;70.65
10869;BME280;62667;48.698;8.762;2024-03-23T01:15:11;95505.91;;;7.36;70.76
10869;BME280;62667;48.698;8.762;2024-03-23T01:17:37;95507.75;;;7.42;70.73
10869;BME280;62667;48.698;8.762;2024-03-23T01:20:04;95506.50;;;7.50;70.63
10869;BME280;62667;48.698;8.762;2024-03-23T01:22:31;95494.47;;;7.55;70.32
10869;BME280;62667;48.698;8.762;2024-03-23T01:24:58;95485.31;;;7.76;70.19
10869;BME280;62667;48.698;8.762;2024-03-23T01:27:25;95479.72;;;7.90;69.61
10869;BME280;62667;48.698;8.762;2024-03-23T01:29:52;95489.31;;;7.94;69.63
10869;BME280;62667;48.698;8.762;2024-03-23T01:32:17;95483.09;;;7.67;69.95
10869;BME280;62667;48.698;8.762;2024-03-23T01:34:44;95473.75;;;7.72;69.72
10869;BME280;62667;48.698;8.762;2024-03-23T01:37:10;95472.84;;;7.82;69.30
10869;BME280;62667;48.698;8.762;2024-03-23T01:39:36;95472.50;;;7.80;69.68
10869;BME280;62667;48.698;8.762;2024-03-23T01:42:02;95474.44;;;7.79;69.80
10869;BME280;62667;48.698;8.762;2024-03-23T01:44:30;95464.72;;;7.82;69.97
10869;BME280;62667;48.698;8.762;2024-03-23T01:46:56;95451.06;;;7.89;69.74
10869;BME280;62667;48.698;8.762;2024-03-23T01:49:23;95447.06;;;8.00;69.73
10869;BME280;62667;48.698;8.762;2024-03-23T01:51:49;95454.19;;;8.14;68.24
10869;BME280;62667;48.698;8.762;2024-03-23T01:54:16;95463.25;;;8.04;69.14
10869;BME280;62667;48.698;8.762;2024-03-23T01:56:41;95452.41;;;8.04;68.97
10869;BME280;62667;48.698;8.762;2024-03-23T01:59:08;95433.75;;;8.09;69.37
10869;BME280;62667;48.698;8.762;2024-03-23T02:01:36;95433.13;;;8.25;68.94
10869;BME280;62667;48.698;8.762;2024-03-23T02:04:02;95423.38;;;8.31;68.19
10869;BME280;62667;48.698;8.762;2024-03-23T02:06:28;95418.66;;;8.35;68.02
10869;BME280;62667;48.698;8.762;2024-03-23T02:08:55;95420.94;;;8.37;67.89
10869;BME280;62667;48.698;8.762;2024-03-23T02:11:21;95420.78;;;8.47;67.67
10869;BME280;62667;48.698;8.762;2024-03-23T02:13:48;95430.75;;;8.54;67.98
10869;BME280;62667;48.698;8.762;2024-03-23T02:16:14;95410.75;;;8.44;68.56
10869;BME280;62667;48.698;8.762;2024-03-23T02:18:41;95412.63;;;8.47;67.96
10869;BME280;62667;48.698;8.762;2024-03-23T02:21:07;95420.19;;;8.36;67.78
10869;BME280;62667;48.698;8.762;2024-03-23T02:23:35;95408.84;;;8.18;68.03
10869;BME280;62667;48.698;8.762;2024-03-23T02:26:01;95410.44;;;8.15;69.08
10869;BME280;62667;48.698;8.762;2024-03-23T02:28:27;95403.66;;;8.27;69.19
10869;BME280;62667;48.698;8.762;2024-03-23T02:30:53;95394.81;;;8.23;69.17
10869;BME280;62667;48.698;8.762;2024-03-23T02:33:19;95395.78;;;8.36;68.09
10869;BME280;62667;48.698;8.762;2024-03-23T02:35:45;95399.63;;;8.39;68.69
10869;BME280;62667;48.698;8.762;2024-03-23T02:38:12;95398.75;;;8.65;68.00
10869;BME280;62667;48.698;8.762;2024-03-23T02:40:39;95395.53;;;8.50;68.68
10869;BME280;62667;48.698;8.762;2024-03-23T02:43:05;95392.00;;;8.53;69.08
10869;BME280;62667;48.698;8.762;2024-03-23T02:45:31;95378.75;;;8.59;68.23
10869;BME280;62667;48.698;8.762;2024-03-23T02:47:58;95383.50;;;8.74;68.57
10869;BME280;62667;48.698;8.762;2024-03-23T02:50:23;95393.72;;;8.86;68.78
10869;BME280;62667;48.698;8.762;2024-03-23T02:52:50;95396.28;;;8.74;67.24
10869;BME280;62667;48.698;8.762;2024-03-23T02:55:16;95387.00;;;8.29;68.01
10869;BME280;62667;48.698;8.762;2024-03-23T02:57:44;95386.47;;;8.37;68.99
10869;BME280;62667;48.698;8.762;2024-03-23T03:00:10;95376.69;;;8.43;68.79
10869;BME280;62667;48.698;8.762;2024-03-23T03:02:38;95374.94;;;8.76;68.54
10869;BME280;62667;48.698;8.762;2024-03-23T03:05:04;95376.41;;;9.00;68.00
10869;BME280;62667;48.698;8.762;2024-03-23T03:07:31;95378.50;;;9.12;68.11
10869;BME280;62667;48.698;8.762;2024-03-23T03:09:56;95372.88;;;9.23;67.38
10869;BME280;62667;48.698;8.762;2024-03-23T03:12:23;95358.44;;;9.06;67.59
10869;BME280;62667;48.698;8.762;2024-03-23T03:14:50;95363.94;;;9.03;67.74
10869;BME280;62667;48.698;8.762;2024-03-23T03:17:16;95369.94;;;9.14;68.73
10869;BME280;62667;48.698;8.762;2024-03-23T03:19:42;95372.38;;;9.28;67.70
10869;BME280;62667;48.698;8.762;2024-03-23T03:22:08;95355.94;;;9.35;67.86
10869;BME280;62667;48.698;8.762;2024-03-23T03:24:34;95353.56;;;9.37;67.27
10869;BME280;62667;48.698;8.762;2024-03-23T03:27:00;95351.13;;;9.42;67.31
10869;BME280;62667;48.698;8.762;2024-03-23T03:29:28;95348.50;;;9.55;66.96
10869;BME280;62667;48.698;8.762;2024-03-23T03:32:02;95336.09;;;9.38;67.34
10869;BME280;62667;48.698;8.762;2024-03-23T03:34:27;95330.94;;;9.24;67.35
10869;BME280;62667;48.698;8.762;2024-03-23T03:36:54;95324.34;;;9.41;68.16
10869;BME280;62667;48.698;8.762;2024-03-23T03:39:20;95321.00;;;9.53;67.54
10869;BME280;62667;48.698;8.762;2024-03-23T03:41:48;95311.88;;;9.43;67.71
10869;BME280;62667;48.698;8.762;2024-03-23T03:44:13;95306.63;;;9.36;67.68
10869;BME280;62667;48.698;8.762;2024-03-23T03:46:40;95293.53;;;9.31;67.65
10869;BME280;62667;48.698;8.762;2024-03-23T03:49:07;95287.19;;;9.38;68.20
10869;BME280;62667;48.698;8.762;2024-03-23T03:51:33;95280.06;;;9.44;68.54
10869;BME280;62667;48.698;8.762;2024-03-23T03:53:59;95272.34;;;9.42;67.54
10869;BME280;62667;48.698;8.762;2024-03-23T03:56:26;95281.66;;;9.41;67.81
10869;BME280;62667;48.698;8.762;2024-03-23T03:58:53;95264.47;;;9.48;67.90
10869;BME280;62667;48.698;8.762;2024-03-23T04:01:19;95258.59;;;9.49;68.08
10869;BME280;62667;48.698;8.762;2024-03-23T04:03:45;95260.81;;;9.54;68.12
10869;BME280;62667;48.698;8.762;2024-03-23T04:06:18;95272.09;;;9.53;67.96
10869;BME280;62667;48.698;8.762;2024-03-23T04:08:44;95264.75;;;9.34;67.84
10869;BME280;62667;48.698;8.762;2024-03-23T04:11:10;95287.50;;;9.24;68.42
10869;BME280;62667;48.698;8.762;2024-03-23T04:13:36;95294.41;;;8.30;69.36
10869;BME280;62667;48.698;8.762;2024-03-23T04:16:03;95303.28;;;7.84;69.68
10869;BME280;62667;48.698;8.762;2024-03-23T04:18:29;95285.66;;;7.96;70.95
10869;BME280;62667;48.698;8.762;2024-03-23T04:20:55;95273.34;;;8.14;71.62
10869;BME280;62667;48.698;8.762;2024-03-23T04:23:22;95270.59;;;8.41;70.89
10869;BME280;62667;48.698;8.762;2024-03-23T04:25:49;95262.38;;;8.64;70.51
10869;BME280;62667;48.698;8.762;2024-03-23T04:28:15;95274.53;;;8.76;71.95
10869;BME280;62667;48.698;8.762;2024-03-23T04:30:41;95270.56;;;8.80;70.98
10869;BME280;62667;48.698;8.762;2024-03-23T04:33:07;95294.66;;;8.78;71.69
10869;BME280;62667;48.698;8.762;2024-03-23T04:35:33;95338.97;;;8.72;73.17
10869;BME280;62667;48.698;8.762;2024-03-23T04:37:59;95327.78;;;8.47;74.81
10869;BME280;62667;48.698;8.762;2024-03-23T04:40:27;95311.13;;;8.25;75.38
10869;BME280;62667;48.698;8.762;2024-03-23T04:42:53;95298.25;;;8.52;77.82
10869;BME280;62667;48.698;8.762;2024-03-23T04:45:20;95297.22;;;8.66;77.15
10869;BME280;62667;48.698;8.762;2024-03-23T04:47:47;95317.38;;;8.65;76.97
10869;BME280;62667;48.698;8.762;2024-03-23T04:50:13;95325.75;;;8.74;76.91
10869;BME280;62667;48.698;8.762;2024-03-23T04:52:40;95326.53;;;8.74;77.46
10869;BME280;62667;48.698;8.762;2024-03-23T04:55:07;95325.66;;;8.77;75.92
10869;BME280;62667;48.698;8.762;2024-03-23T04:57:35;95333.19;;;8.89;76.18
10869;BME280;62667;48.698;8.762;2024-03-23T05:00:02;95343.56;;;8.95;76.00
10869;BME280;62667;48.698;8.762;2024-03-23T05:02:30;95354.34;;;8.98;75.86
10869;BME280;62667;48.698;8.762;2024-03-23T05:04:56;95362.19;;;8.93;75.67
10869;BME280;62667;48.698;8.762;2024-03-23T05:07:22;95351.97;;;8.80;76.35
10869;BME280;62667;48.698;8.762;2024-03-23T05:09:48;95343.41;;;8.62;76.82
10869;BME280;62667;48.698;8.762;2024-03-23T05:12:14;95340.28;;;8.64;75.71
10869;BME280;62667;48.698;8.762;2024-03-23T05:14:42;95340.81;;;8.55;75.23
10869;BME280;62667;48.698;8.762;2024-03-23T05:17:07;95340.13;;;8.51;75.42
10869;BME280;62667;48.698;8.762;2024-03-23T05:19:34;95351.31;;;8.53;74.78
10869;BME280;62667;48.698;8.762;2024-03-23T05:22:00;95330.50;;;8.47;75.65
10869;BME280;62667;48.698;8.762;2024-03-23T05:24:26;95345.31;;;8.42;75.58
10869;BME280;62667;48.698;8.762;2024-03-23T05:26:52;95352.88;;;8.31;76.97
10869;BME280;62667;48.698;8.762;2024-03-23T05:29:18;95357.59;;;8.27;76.29
10869;BME280;62667;48.698;8.762;2024-03-23T05:31:49;95377.56;;;8.37;76.09
10869;BME280;62667;48.698;8.762;2024-03-23T05:34:17;95364.78;;;8.37;74.84
10869;BME280;62667;48.698;8.762;2024-03-23T05:36:42;95384.31;;;8.29;75.76
10869;BME280;62667;48.698;8.762;2024-03-23T05:39:09;95400.16;;;8.30;75.15
10869;BME280;62667;48.698;8.762;2024-03-23T05:41:34;95412.25;;;8.22;74.88
10869;BME280;62667;48.698;8.762;2024-03-23T05:44:01;95418.94;;;8.14;75.87
10869;BME280;62667;48.698;8.762;2024-03-23T05:46:27;95437.34;;;8.03;76.24
10869;BME280;62667;48.698;8.762;2024-03-23T05:49:01;95417.97;;;8.01;74.83
10869;BME280;62667;48.698;8.762;2024-03-23T05:51:27;95418.75;;;8.01;74.29
10869;BME280;62667;48.698;8.762;2024-03-23T05:53:53;95409.66;;;7.88;72.52
10869;BME280;62667;48.698;8.762;2024-03-23T05:56:19;95405.63;;;7.73;73.10
10869;BME280;62667;48.698;8.762;2024-03-23T05:58:46;95428.63;;;7.61;74.42
10869;BME280;62667;48.698;8.762;2024-03-23T06:01:12;95434.66;;;7.42;73.94
10869;BME280;62667;48.698;8.762;2024-03-23T06:03:38;95438.91;;;7.43;74.11
10869;BME280;62667;48.698;8.762;2024-03-23T06:06:05;95432.44;;;7.34;73.64
10869;BME280;62667;48.698;8.762;2024-03-23T06:08:36;95435.19;;;7.30;73.35
10869;BME280;62667;48.698;8.762;2024-03-23T06:11:02;95438.00;;;7.23;72.60
10869;BME280;62667;48.698;8.762;2024-03-23T06:13:29;95427.16;;;7.23;72.94
10869;BME280;62667;48.698;8.762;2024-03-23T06:15:55;95444.94;;;7.24;73.10
10869;BME280;62667;48.698;8.762;2024-03-23T06:18:22;95453.47;;;7.23;73.54
10869;BME280;62667;48.698;8.762;2024-03-23T06:20:48;95465.09;;;7.20;74.56
10869;BME280;62667;48.698;8.762;2024-03-23T06:23:15;95463.16;;;7.20;73.95
10869;BME280;62667;48.698;8.762;2024-03-23T06:25:42;95471.69;;;7.19;74.46
10869;BME280;62667;48.698;8.762;2024-03-23T06:28:09;95500.00;;;7.07;73.18
10869;BME280;62667;48.698;8.762;2024-03-23T06:30:34;95476.94;;;6.99;74.85
10869;BME280;62667;48.698;8.762;2024-03-23T06:33:01;95497.00;;;7.02;74.43
10869;BME280;62667;48.698;8.762;2024-03-23T06:35:26;95518.66;;;6.98;73.45
10869;BME280;62667;48.698;8.762;2024-03-23T06:37:53;95503.22;;;6.95;74.16
10869;BME280;62667;48.698;8.762;2024-03-23T06:40:20;95521.09;;;6.89;73.80
10869;BME280;62667;48.698;8.762;2024-03-23T06:42:46;95509.06;;;6.90;74.77
10869;BME280;62667;48.698;8.762;2024-03-23T06:45:12;95506.72;;;6.92;74.36
10869;BME280;62667;48.698;8.762;2024-03-23T06:47:38;95512.63;;;6.83;75.43
10869;BME280;62667;48.698;8.762;2024-03-23T06:50:05;95504.09;;;6.85;74.76
10869;BME280;62667;48.698;8.762;2024-03-23T06:52:32;95523.47;;;6.80;75.19
10869;BME280;62667;48.698;8.762;2024-03-23T06:54:57;95526.50;;;6.89;75.09
10869;BME280;62667;48.698;8.762;2024-03-23T06:57:25;95536.09;;;6.93;75.06
10869;BME280;62667;48.698;8.762;2024-03-23T06:59:51;95528.47;;;6.81;75.10
10869;BME280;62667;48.698;8.762;2024-03-23T07:02:17;95543.53;;;6.82;75.32
10869;BME280;62667;48.698;8.762;2024-03-23T07:04:43;95543.94;;;6.81;73.38
10869;BME280;62667;48.698;8.762;2024-03-23T07:07:10;95558.19;;;6.85;73.51
10869;BME280;62667;48.698;8.762;2024-03-23T07:09:35;95546.69;;;6.74;73.79
10869;BME280;62667;48.698;8.762;2024-03-23T07:12:03;95544.47;;;6.62;74.35
10869;BME280;62667;48.698;8.762;2024-03-23T07:14:31;95548.72;;;6.63;74.17
10869;BME280;62667;48.698;8.762;2024-03-23T07:16:57;95550.63;;;6.66;73.38
10869;BME280;62667;48.698;8.762;2024-03-23T07:19:23;95541.75;;;6.62;73.86
10869;BME280;62667;48.698;8.762;2024-03-23T07:21:49;95566.88;;;6.59;73.67
10869;BME280;62667;48.698;8.762;2024-03-23T07:24:15;95573.53;;;6.51;73.79
10869;BME280;62667;48.698;8.762;2024-03-23T07:26:42;95587.78;;;6.55;73.96
10869;BME280;62667;48.698;8.762;2024-03-23T07:29:08;95598.59;;;6.55;74.87
10869;BME280;62667;48.698;8.762;2024-03-23T07:31:35;95597.81;;;6.54;74.82
10869;BME280;62667;48.698;8.762;2024-03-23T07:34:01;95597.06;;;6.54;74.22
10869;BME280;62667;48.698;8.762;2024-03-23T07:36:28;95608.69;;;6.51;74.80
10869;BME280;62667;48.698;8.762;2024-03-23T07:38:53;95618.72;;;6.47;75.96
10869;BME280;62667;48.698;8.762;2024-03-23T07:41:20;95618.78;;;6.40;75.70
10869;BME280;62667;48.698;8.762;2024-03-23T07:43:47;95612.91;;;6.55;76.72
10869;BME280;62667;48.698;8.762;2024-03-23T07:46:14;95619.44;;;6.58;75.53
10869;BME280;62667;48.698;8.762;2024-03-23T07:48:41;95602.38;;;6.68;74.10
10869;BME280;62667;48.698;8.762;2024-03-23T07:51:09;95608.59;;;6.65;74.66
10869;BME280;62667;48.698;8.762;2024-03-23T07:53:36;95632.97;;;6.54;72.91
10869;BME280;62667;48.698;8.762;2024-03-23T07:56:06;95638.38;;;6.58;74.16
10869;BME280;62667;48.698;8.762;2024-03-23T07:58:32;95642.66;;;6.52;74.14
10869;BME280;62667;48.698;8.762;2024-03-23T08:01:03;95665.88;;;6.46;73.02
10869;BME280;62667;48.698;8.762;2024-03-23T08:03:29;95661.97;;;6.50;72.11
10869;BME280;62667;48.698;8.762;2024-03-23T08:05:57;95656.16;;;6.52;72.62
10869;BME280;62667;48.698;8.762;2024-03-23T08:08:22;95666.91;;;6.66;70.75
10869;BME280;62667;48.698;8.762;2024-03-23T08:10:49;95667.56;;;6.84;70.74
10869;BME280;62667;48.698;8.762;2024-03-23T08:13:15;95683.00;;;6.87;70.52
10869;BME280;62667;48.698;8.762;2024-03-23T08:15:42;95678.06;;;6.78;69.16
10869;BME280;62667;48.698;8.762;2024-03-23T08:18:08;95692.75;;;6.74;69.11
10869;BME280;62667;48.698;8.762;2024-03-23T08:20:35;95717.38;;;6.90;70.18
10869;BME280;62667;48.698;8.762;2024-03-23T08:23:02;95736.00;;;6.81;69.21
10869;BME280;62667;48.698;8.762;2024-03-23T08:25:30;95751.91;;;6.65;68.84
10869;BME280;62667;48.698;8.762;2024-03-23T08:27:56;95749.69;;;6.46;68.17
10869;BME280;62667;48.698;8.762;2024-03-23T08:30:23;95742.31;;;6.53;68.61
10869;BME280;62667;48.698;8.762;2024-03-23T08:32:48;95731.47;;;6.57;69.42
10869;BME280;62667;48.698;8.762;2024-03-23T08:35:15;95738.31;;;6.79;69.23
10869;BME280;62667;48.698;8.762;2024-03-23T08:37:40;95747.28;;;6.62;67.49
10869;BME280;62667;48.698;8.762;2024-03-23T08:40:09;95753.75;;;6.85;67.38
10869;BME280;62667;48.698;8.762;2024-03-23T08:42:35;95749.78;;;7.04;67.26
10869;BME280;62667;48.698;8.762;2024-03-23T08:45:02;95757.50;;;7.02;66.71
10869;BME280;62667;48.698;8.762;2024-03-23T08:47:28;95758.38;;;6.85;66.40
10869;BME280;62667;48.698;8.762;2024-03-23T08:49:54;95774.28;;;6.76;67.21
10869;BME280;62667;48.698;8.762;2024-03-23T08:52:20;95780.03;;;6.81;67.34
10869;BME280;62667;48.698;8.762;2024-03-23T08:54:48;95769.94;;;6.92;68.30
10869;BME280;62667;48.698;8.762;2024-03-23T08:57:15;95787.34;;;6.91;67.09
10869;BME280;62667;48.698;8.762;2024-03-23T08:59:41;95779.03;;;7.23;66.12
10869;BME280;62667;48.698;8.762;2024-03-23T09:02:07;95793.63;;;7.43;65.65
10869;BME280;62667;48.698;8.762;2024-03-23T09:04:34;95842.97;;;7.69;65.38
10869;BME280;62667;48.698;8.762;2024-03-23T09:07:00;95807.94;;;7.44;63.59
10869;BME280;62667;48.698;8.762;2024-03-23T09:09:27;95815.31;;;7.36;63.01
10869;BME280;62667;48.698;8.762;2024-03-23T09:11:52;95805.28;;;7.33;60.96
10869;BME280;62667;48.698;8.762;2024-03-23T09:14:22;95815.28;;;7.40;61.75
10869;BME280;62667;48.698;8.762;2024-03-23T09:16:49;95817.56;;;7.48;62.79
10869;BME280;62667;48.698;8.762;2024-03-23T09:19:17;95818.63;;;7.61;61.34
10869;BME280;62667;48.698;8.762;2024-03-23T09:21:42;95822.50;;;7.64;61.17
10869;BME280;62667;48.698;8.762;2024-03-23T09:24:09;95824.13;;;7.51;59.79
10869;BME280;62667;48.698;8.762;2024-03-23T09:26:35;95827.03;;;7.12;59.79
10869;BME280;62667;48.698;8.762;2024-03-23T09:29:01;95833.59;;;7.18;59.66
10869;BME280;62667;48.698;8.762;2024-03-23T09:31:28;95835.94;;;7.16;59.88
10869;BME280;62667;48.698;8.762;2024-03-23T09:33:57;95826.63;;;7.24;59.70
10869;BME280;62667;48.698;8.762;2024-03-23T09:36:22;95821.88;;;7.39;59.33
10869;BME280;62667;48.698;8.762;2024-03-23T09:38:49;95843.88;;;7.48;60.29
10869;BME280;62667;48.698;8.762;2024-03-23T09:41:15;95828.34;;;7.55;59.50
10869;BME280;62667;48.698;8.762;2024-03-23T09:43:41;95822.19;;;7.51;59.80
10869;BME280;62667;48.698;8.762;2024-03-23T09:46:07;95820.22;;;7.55;59.50
10869;BME280;62667;48.698;8.762;2024-03-23T09:48:36;95816.81;;;7.44;58.61
10869;BME280;62667;48.698;8.762;2024-03-23T09:51:02;95812.50;;;7.57;58.05
10869;BME280;62667;48.698;8.762;2024-03-23T09:53:29;95814.88;;;7.45;57.10
10869;BME280;62667;48.698;8.762;2024-03-23T09:55:55;95797.75;;;7.58;57.89
10869;BME280;62667;48.698;8.762;2024-03-23T09:58:23;95800.91;;;8.01;57.42
10869;BME280;62667;48.698;8.762;2024-03-23T10:00:49;95810.41;;;8.20;56.58
10869;BME280;62667;48.698;8.762;2024-03-23T10:03:15;95789.94;;;8.15;56.38
10869;BME280;62667;48.698;8.762;2024-03-23T10:05:42;95791.81;;;8.22;56.52
10869;BME280;62667;48.698;8.762;2024-03-23T10:08:17;95788.31;;;8.62;55.38
10869;BME280;62667;48.698;8.762;2024-03-23T10:10:45;95790.34;;;8.88;53.94
10869;BME280;62667;48.698;8.762;2024-03-23T10:13:23;95801.38;;;8.37;54.14
10869;BME280;62667;48.698;8.762;2024-03-23T10:15:55;95797.13;;;7.92;55.74
10869;BME280;62667;48.698;8.762;2024-03-23T10:18:21;95792.81;;;7.50;56.93
10869;BME280;62667;48.698;8.762;2024-03-23T10:20:51;95810.66;;;7.40;59.15
10869;BME280;62667;48.698;8.762;2024-03-23T10:23:18;95821.34;;;6.92;60.23
10869;BME280;62667;48.698;8.762;2024-03-23T10:25:44;95829.94;;;6.66;61.58
10869;BME280;62667;48.698;8.762;2024-03-23T10:28:12;95859.00;;;6.09;66.32
10869;BME280;62667;48.698;8.762;2024-03-23T10:30:37;95916.56;;;4.92;69.76
10869;BME280;62667;48.698;8.762;2024-03-23T10:33:08;95902.38;;;4.37;73.27
10869;BME280;62667;48.698;8.762;2024-03-23T10:35:33;95903.88;;;3.83;75.35
10869;BME280;62667;48.698;8.762;2024-03-23T10:38:04;95939.66;;;3.88;75.45
10869;BME280;62667;48.698;8.762;2024-03-23T10:40:30;95893.34;;;4.12;76.39
10869;BME280;62667;48.698;8.762;2024-03-23T10:42:58;95878.47;;;4.35;75.42
10869;BME280;62667;48.698;8.762;2024-03-23T10:45:24;95870.69;;;4.92;74.54
10869;BME280;62667;48.698;8.762;2024-03-23T10:47:51;95868.19;;;5.52;73.23
10869;BME280;62667;48.698;8.762;2024-03-23T10:50:17;95864.78;;;5.90;70.69
10869;BME280;62667;48.698;8.762;2024-03-23T10:52:46;95858.22;;;5.98;68.61
10869;BME280;62667;48.698;8.762;2024-03-23T10:55:16;95851.66;;;6.06;70.21
10869;BME280;62667;48.698;8.762;2024-03-23T10:57:45;95847.81;;;6.00;68.92
10869;BME280;62667;48.698;8.762;2024-03-23T11:00:14;95845.50;;;5.99;69.64
10869;BME280;62667;48.698;8.762;2024-03-23T11:02:41;95853.56;;;5.56;68.93
10869;BME280;62667;48.698;8.762;2024-03-23T11:05:27;95851.28;;;5.87;68.89
10869;BME280;62667;48.698;8.762;2024-03-23T11:07:54;95857.44;;;5.84;68.56
10869;BME280;62667;48.698;8.762;2024-03-23T11:10:29;95848.53;;;6.47;66.40
10869;BME280;62667;48.698;8.762;2024-03-23T11:12:56;95865.78;;;6.95;67.36
10869;BME280;62667;48.698;8.762;2024-03-23T11:15:21;95849.53;;;6.95;64.52
10869;BME280;62667;48.698;8.762;2024-03-23T11:18:02;95847.59;;;7.03;67.27
10869;BME280;62667;48.698;8.762;2024-03-23T11:20:31;95847.59;;;7.68;62.59
10869;BME280;62667;48.698;8.762;2024-03-23T11:22:59;95837.31;;;8.00;63.07
10869;BME280;62667;48.698;8.762;2024-03-23T11:25:26;95834.03;;;8.23;60.73
10869;BME280;62667;48.698;8.762;2024-03-23T11:27:55;95850.59;;;7.84;61.78
10869;BME280;62667;48.698;8.762;2024-03-23T11:30:23;95840.88;;;7.32;61.13
10869;BME280;62667;48.698;8.762;2024-03-23T11:32:51;95837.16;;;7.01;60.72
10869;BME280;62667;48.698;8.762;2024-03-23T11:35:28;95837.00;;;7.33;59.50
10869;BME280;62667;48.698;8.762;2024-03-23T11:38:06;95830.72;;;7.46;58.41
10869;BME280;62667;48.698;8.762;2024-03-23T11:40:32;95835.91;;;7.85;57.55
10869;BME280;62667;48.698;8.762;2024-03-23T11:43:02;95835.09;;;8.36;55.84
10869;BME280;62667;48.698;8.762;2024-03-23T11:45:28;95848.81;;;8.15;54.24
10869;BME280;62667;48.698;8.762;2024-03-23T11:48:02;95822.66;;;7.94;54.16
10869;BME280;62667;48.698;8.762;2024-03-23T11:50:28;95825.22;;;8.12;56.20
10869;BME280;62667;48.698;8.762;2024-03-23T11:53:12;95824.28;;;7.85;56.43
10869;BME280;62667;48.698;8.762;2024-03-23T11:55:40;95825.44;;;7.84;55.36
10869;BME280;62667;48.698;8.762;2024-03-23T11:58:08;95820.47;;;8.23;56.27
10869;BME280;62667;48.698;8.762;2024-03-23T12:00:34;95817.16;;;8.05;54.14
10869;BME280;62667;48.698;8.762;2024-03-23T12:03:01;95821.78;;;8.04;55.06
10869;BME280;62667;48.698;8.762;2024-03-23T12:05:26;95800.38;;;8.17;53.95
10869;BME280;62667;48.698;8.762;2024-03-23T12:07:53;95810.09;;;8.55;54.46
10869;BME280;62667;48.698;8.762;2024-03-23T12:10:19;95794.59;;;8.89;53.00
10869;BME280;62667;48.698;8.762;2024-03-23T12:12:45;95806.13;;;8.63;53.80
10869;BME280;62667;48.698;8.762;2024-03-23T12:15:14;95792.97;;;8.96;53.68
10869;BME280;62667;48.698;8.762;2024-03-23T12:17:41;95801.94;;;9.23;54.49
10869;BME280;62667;48.698;8.762;2024-03-23T12:20:08;95810.31;;;8.34;54.48
10869;BME280;62667;48.698;8.762;2024-03-23T12:22:35;95793.16;;;8.81;56.28
10869;BME280;62667;48.698;8.762;2024-03-23T12:25:01;95803.00;;;8.99;53.89
10869;BME280;62667;48.698;8.762;2024-03-23T12:27:27;95808.84;;;8.63;53.49
10869;BME280;62667;48.698;8.762;2024-03-23T12:29:53;95789.97;;;8.12;55.26
10869;BME280;62667;48.698;8.762;2024-03-23T12:32:20;95809.38;;;8.51;54.88
10869;BME280;62667;48.698;8.762;2024-03-23T12:34:46;95797.84;;;8.40;54.84
10869;BME280;62667;48.698;8.762;2024-03-23T12:37:13;95822.78;;;8.65;53.14
10869;BME280;62667;48.698;8.762;2024-03-23T12:39:39;95811.91;;;8.65;53.15
10869;BME280;62667;48.698;8.762;2024-03-23T12:42:06;95817.22;;;8.79;53.90
10869;BME280;62667;48.698;8.762;2024-03-23T12:44:31;95817.72;;;8.67;53.02
10869;BME280;62667;48.698;8.762;2024-03-23T12:46:58;95828.34;;;8.07;52.16
10869;BME280;62667;48.698;8.762;2024-03-23T12:49:25;95835.78;;;7.96;53.18
10869;BME280;62667;48.698;8.762;2024-03-23T12:51:55;95795.81;;;7.59;50.91
10869;BME280;62667;48.698;8.762;2024-03-23T12:54:21;95845.47;;;7.35;50.20
10869;BME280;62667;48.698;8.762;2024-03-23T12:56:48;95826.38;;;6.94;50.02
10869;BME280;62667;48.698;8.762;2024-03-23T12:59:13;95844.22;;;6.70;50.41
10869;BME280;62667;48.698;8.762;2024-03-23T13:01:41;95855.09;;;6.53;50.91
10869;BME280;62667;48.698;8.762;2024-03-23T13:04:07;95818.06;;;6.35;51.74
10869;BME280;62667;48.698;8.762;2024-03-23T13:06:35;95828.13;;;6.10;54.63
10869;BME280;62667;48.698;8.762;2024-03-23T13:09:01;95807.66;;;6.16;54.74
10869;BME280;62667;48.698;8.762;2024-03-23T13:11:28;95811.72;;;6.84;54.00
10869;BME280;62667;48.698;8.762;2024-03-23T13:13:54;95795.94;;;7.41;51.84
10869;BME280;62667;48.698;8.762;2024-03-23T13:16:21;95781.56;;;8.44;51.37
10869;BME280;62667;48.698;8.762;2024-03-23T13:18:46;95755.44;;;8.19;49.88
10869;BME280;62667;48.698;8.762;2024-03-23T13:21:13;95763.75;;;7.98;50.95
10869;BME280;62667;48.698;8.762;2024-03-23T13:23:40;95759.00;;;8.13;51.52
10869;BME280;62667;48.698;8.762;2024-03-23T13:26:08;95746.66;;;8.46;51.16
10869;BME280;62667;48.698;8.762;2024-03-23T13:28:33;95758.09;;;8.94;50.69
10869;BME280;62667;48.698;8.762;2024-03-23T13:31:01;95766.25;;;9.21;49.13
10869;BME280;62667;48.698;8.762;2024-03-23T13:33:29;95776.78;;;8.85;50.12
10869;BME280;62667;48.698;8.762;2024-03-23T13:35:58;95770.75;;;8.74;51.96
10869;BME280;62667;48.698;8.762;2024-03-23T13:38:24;95790.09;;;8.42;52.12
10869;BME280;62667;48.698;8.762;2024-03-23T13:40:53;95797.97;;;7.27;56.77
10869;BME280;62667;48.698;8.762;2024-03-23T13:43:19;95809.34;;;6.97;57.72
10869;BME280;62667;48.698;8.762;2024-03-23T13:45:46;95813.59;;;6.98;60.06
10869;BME280;62667;48.698;8.762;2024-03-23T13:48:12;95865.13;;;6.49;58.25
10869;BME280;62667;48.698;8.762;2024-03-23T13:50:39;95837.75;;;5.80;62.30
10869;BME280;62667;48.698;8.762;2024-03-23T13:53:04;95813.81;;;6.31;63.60
10869;BME280;62667;48.698;8.762;2024-03-23T13:55:31;95834.28;;;6.28;60.42
10869;BME280;62667;48.698;8.762;2024-03-23T13:57:58;95806.34;;;6.74;59.46
10869;BME280;62667;48.698;8.762;2024-03-23T14:00:25;95796.41;;;7.29;58.56